Time;durP1;ratioP1;P1;durP2;ratioP2;P2;SDS_P1;SDS_P2;PMS_P1;PMS_P2;Temp;Humidity;BMP_temperature;BMP_pressure;BME280_temperature;BME280_humidity;BME280_pressure;Samples;Min_cycle;Max_cycle;Signal;HPM_P1;HPM_P2
2023/10/31 00:05:29;;;;;;;15.10;6.95;;;10.30;99.90;;;;;;20343570;29;20086;-45
2023/10/31 00:15:30;;;;;;;13.45;7.85;;;10.30;99.90;;;;;;20335112;29;20455;-45
2023/10/31 00:25:30;;;;;;;17.70;7.97;;;10.40;99.90;;;;;;20336926;29;20587;-42
2023/10/31 00:35:31;;;;;;;17.10;8.27;;;10.60;99.90;;;;;;20333984;29;20551;-45
2023/10/31 00:45:31;;;;;;;12.25;7.57;;;10.60;99.90;;;;;;20337941;29;20186;-42
2023/10/31 00:55:32;;;;;;;11.93;5.47;;;10.50;99.90;;;;;;20342794;29;20356;-42
2023/10/31 01:05:33;;;;;;;6.05;2.63;;;10.60;99.90;;;;;;20346048;29;20289;-42
2023/10/31 01:15:33;;;;;;;10.05;3.88;;;10.50;99.90;;;;;;20321374;29;20047;-42
2023/10/31 01:25:34;;;;;;;18.70;6.47;;;10.50;99.90;;;;;;20342562;29;20233;-42
2023/10/31 01:35:34;;;;;;;18.75;8.40;;;10.50;99.90;;;;;;20335497;29;20166;-43
2023/10/31 01:45:35;;;;;;;21.20;11.90;;;10.40;99.90;;;;;;20337288;29;20074;-42
2023/10/31 01:55:36;;;;;;;24.08;13.20;;;10.50;99.90;;;;;;20334375;29;20956;-42
2023/10/31 02:05:36;;;;;;;20.17;10.65;;;10.70;99.90;;;;;;20339396;29;20488;-43
2023/10/31 02:15:37;;;;;;;16.50;8.67;;;10.70;99.90;;;;;;20348198;29;20044;-42
2023/10/31 02:25:38;;;;;;;19.00;7.40;;;10.80;99.90;;;;;;20344664;29;20863;-42
2023/10/31 02:35:38;;;;;;;11.27;5.63;;;10.80;99.90;;;;;;20349368;29;20052;-45
2023/10/31 02:45:39;;;;;;;13.93;5.90;;;10.70;99.90;;;;;;20346771;29;20598;-44
2023/10/31 02:55:39;;;;;;;8.63;3.92;;;10.80;99.90;;;;;;20341236;29;20071;-50
2023/10/31 03:05:40;;;;;;;4.75;2.00;;;10.70;99.90;;;;;;20343939;29;20046;-45
2023/10/31 03:15:40;;;;;;;4.18;1.50;;;10.70;99.90;;;;;;20342483;29;20063;-45
2023/10/31 03:25:41;;;;;;;4.45;1.13;;;10.60;99.90;;;;;;20348362;29;20510;-43
2023/10/31 03:35:42;;;;;;;4.35;0.90;;;10.60;99.90;;;;;;20352832;29;20425;-46
2023/10/31 03:45:42;;;;;;;2.10;0.80;;;10.60;99.90;;;;;;20358736;29;20051;-45
2023/10/31 03:55:43;;;;;;;3.03;0.70;;;10.70;99.90;;;;;;20353846;29;20051;-45
2023/10/31 04:05:43;;;;;;;1.33;0.50;;;10.50;99.90;;;;;;20349860;28;20126;-42
2023/10/31 04:15:44;;;;;;;1.25;0.20;;;10.50;99.90;;;;;;20359212;29;20043;-43
2023/10/31 04:25:46;;;;;;;2.10;0.20;;;10.30;99.90;;;;;;20355098;29;20271;-42
2023/10/31 04:35:46;;;;;;;2.10;0.38;;;10.30;99.90;;;;;;20356083;29;20051;-42
2023/10/31 04:45:47;;;;;;;1.35;0.30;;;10.20;99.90;;;;;;20349402;29;20048;-42
2023/10/31 04:55:47;;;;;;;3.25;0.47;;;10.10;99.90;;;;;;20366235;29;20056;-43
2023/10/31 05:05:48;;;;;;;3.40;0.47;;;10.20;99.90;;;;;;20354327;29;20050;-48
2023/10/31 05:15:48;;;;;;;2.53;0.40;;;10.20;99.90;;;;;;20346121;29;20244;-45
2023/10/31 05:25:49;;;;;;;3.85;1.00;;;10.20;99.90;;;;;;20344376;29;20510;-46
2023/10/31 05:35:50;;;;;;;4.40;3.08;;;10.20;99.90;;;;;;20346470;29;20058;-46
2023/10/31 05:45:51;;;;;;;5.95;2.65;;;10.20;99.90;;;;;;20352156;29;20086;-42
2023/10/31 05:55:51;;;;;;;8.45;4.20;;;10.20;99.90;;;;;;20328100;29;20130;-46
2023/10/31 06:05:52;;;;;;;12.00;6.88;;;10.30;99.90;;;;;;20339981;29;20443;-45
2023/10/31 06:15:55;;;;;;;11.90;6.65;;;10.30;99.90;;;;;;20326400;29;20051;-44
2023/10/31 06:25:56;;;;;;;7.70;4.57;;;10.30;99.90;;;;;;20358694;29;20051;-42
2023/10/31 06:35:56;;;;;;;4.13;2.30;;;10.40;99.90;;;;;;20362387;29;20620;-42
2023/10/31 06:46:00;;;;;;;3.97;2.30;;;10.20;99.90;;;;;;20365944;29;20051;-42
2023/10/31 06:56:00;;;;;;;5.10;1.65;;;10.10;99.90;;;;;;20353474;29;20066;-42
2023/10/31 07:06:01;;;;;;;4.93;1.58;;;10.20;99.90;;;;;;20377632;29;20502;-43
2023/10/31 07:16:03;;;;;;;3.92;1.35;;;10.30;99.90;;;;;;20375228;29;20052;-43
2023/10/31 07:26:04;;;;;;;4.50;1.40;;;10.50;99.90;;;;;;20381383;29;20054;-44
2023/10/31 07:36:05;;;;;;;3.78;1.55;;;10.50;99.90;;;;;;20376807;29;20059;-45
2023/10/31 07:46:05;;;;;;;5.30;2.35;;;10.60;99.90;;;;;;20377534;29;20040;-44
2023/10/31 07:56:15;;;;;;;6.10;2.00;;;10.60;99.90;;;;;;20376225;29;20369;-44
2023/10/31 08:06:15;;;;;;;6.63;2.30;;;10.80;99.90;;;;;;20371022;29;20044;-44
2023/10/31 08:16:19;;;;;;;6.77;2.53;;;10.80;99.90;;;;;;20379274;28;20043;-44
2023/10/31 08:26:20;;;;;;;7.75;2.75;;;10.90;99.90;;;;;;20391382;29;20444;-43
2023/10/31 08:36:20;;;;;;;11.10;3.35;;;10.90;99.90;;;;;;20389944;29;20055;-43
2023/10/31 08:46:21;;;;;;;9.43;3.10;;;11.00;99.90;;;;;;20391094;29;20035;-44
2023/10/31 08:56:22;;;;;;;19.15;6.95;;;11.30;99.90;;;;;;20388178;29;20044;-44
2023/10/31 09:06:22;;;;;;;13.15;4.20;;;11.40;99.90;;;;;;20387718;29;20578;-44
2023/10/31 09:16:23;;;;;;;13.32;4.80;;;11.60;99.90;;;;;;20388838;29;20396;-44
2023/10/31 09:26:24;;;;;;;10.13;4.20;;;11.90;99.90;;;;;;20385854;29;20147;-44
2023/10/31 09:36:24;;;;;;;12.18;4.82;;;12.10;99.90;;;;;;20387478;29;20036;-44
2023/10/31 09:46:25;;;;;;;10.50;4.78;;;12.50;99.90;;;;;;20386286;29;20052;-45
2023/10/31 09:56:26;;;;;;;11.27;5.57;;;12.90;99.90;;;;;;20383905;29;20069;-44
2023/10/31 10:06:27;;;;;;;14.88;5.47;;;13.00;99.90;;;;;;20381778;29;20550;-44
2023/10/31 10:16:30;;;;;;;10.55;5.40;;;13.00;99.90;;;;;;20379827;29;20468;-44
2023/10/31 10:26:30;;;;;;;12.27;5.32;;;13.20;99.90;;;;;;20379694;29;20035;-45
2023/10/31 10:36:33;;;;;;;13.18;5.05;;;13.30;99.90;;;;;;20380418;29;20043;-44
2023/10/31 10:46:36;;;;;;;12.48;5.20;;;13.50;99.90;;;;;;20380150;29;20039;-45
2023/10/31 10:56:55;;;;;;;6.78;3.83;;;13.70;99.90;;;;;;20377305;29;20513;-45
2023/10/31 11:06:56;;;;;;;8.85;2.70;;;14.50;63.60;;;;;;20379160;29;20100;-45
2023/10/31 11:17:02;;;;;;;6.82;2.35;;;14.80;16.90;;;;;;20377017;29;20208;-45
2023/10/31 11:27:05;;;;;;;7.55;2.63;;;14.30;22.60;;;;;;20376822;29;20158;-46
2023/10/31 11:37:26;;;;;;;7.50;3.15;;;13.70;51.10;;;;;;20378562;29;20099;-44
2023/10/31 11:47:44;;;;;;;9.18;4.25;;;13.00;99.90;;;;;;20378923;29;20067;-47
2023/10/31 11:57:45;;;;;;;;;;;13.00;99.90;;;;;;20387656;29;20044;-45
2023/10/31 12:07:46;;;;;;;19.90;12.23;;;13.10;99.90;;;;;;20393194;29;19915;-46
2023/10/31 12:17:46;;;;;;;25.17;16.23;;;13.00;99.90;;;;;;20393172;29;20419;-45
2023/10/31 12:27:49;;;;;;;30.70;17.33;;;12.60;99.90;;;;;;20388380;29;20059;-45
2023/10/31 12:37:50;;;;;;;28.48;15.50;;;12.80;99.90;;;;;;20391262;29;20051;-45
2023/10/31 12:48:05;;;;;;;27.33;15.45;;;12.80;99.90;;;;;;20391546;29;20410;-44
2023/10/31 12:58:09;;;;;;;26.98;14.27;;;13.10;99.90;;;;;;20390094;29;20055;-45
2023/10/31 13:08:15;;;;;;;21.20;13.10;;;13.20;99.90;;;;;;20388571;29;20460;-44
2023/10/31 13:18:16;;;;;;;20.25;12.13;;;13.30;99.90;;;;;;20387180;29;20087;-44
2023/10/31 13:28:16;;;;;;;23.55;13.27;;;13.20;99.90;;;;;;20382173;28;20044;-43
2023/10/31 13:38:18;;;;;;;22.25;14.07;;;13.10;99.90;;;;;;20384760;29;20527;-44
2023/10/31 13:48:18;;;;;;;32.58;16.80;;;12.90;99.90;;;;;;20382267;29;20052;-44
2023/10/31 13:58:20;;;;;;;35.53;19.50;;;12.70;94.30;;;;;;20383871;29;20054;-43
2023/10/31 14:08:21;;;;;;;37.90;21.45;;;12.60;99.60;;;;;;20384237;29;20468;-44
2023/10/31 14:18:21;;;;;;;32.15;20.08;;;12.50;95.60;;;;;;20379702;29;20587;-44
2023/10/31 14:28:22;;;;;;;26.70;17.15;;;12.50;99.90;;;;;;20380639;29;20138;-44
2023/10/31 14:38:22;;;;;;;25.90;16.80;;;12.40;91.90;;;;;;20379190;28;20052;-44
2023/10/31 14:48:23;;;;;;;26.73;17.00;;;12.30;94.90;;;;;;20359990;29;20047;-44
2023/10/31 14:58:23;;;;;;;32.80;19.67;;;12.30;99.90;;;;;;20356369;29;20155;-44
2023/10/31 15:08:24;;;;;;;37.80;23.73;;;12.20;99.90;;;;;;20370599;29;20047;-43
2023/10/31 15:18:25;;;;;;;21.05;13.82;;;12.20;99.90;;;;;;20370699;29;20047;-42
2023/10/31 15:28:25;;;;;;;13.35;9.40;;;12.20;99.90;;;;;;20378068;29;20499;-44
2023/10/31 15:38:28;;;;;;;16.13;10.70;;;11.90;99.90;;;;;;20374860;29;20119;-44
2023/10/31 15:48:29;;;;;;;18.92;12.77;;;11.70;99.90;;;;;;20379362;29;20044;-44
2023/10/31 15:58:30;;;;;;;20.08;14.73;;;11.60;99.90;;;;;;20373151;29;20432;-44
2023/10/31 16:08:30;;;;;;;22.02;15.15;;;11.70;99.90;;;;;;20362843;29;20122;-44
2023/10/31 16:18:31;;;;;;;22.03;15.00;;;11.60;99.90;;;;;;20362977;29;20086;-44
2023/10/31 16:28:31;;;;;;;17.92;13.65;;;11.50;99.90;;;;;;20365570;29;20385;-44
2023/10/31 16:38:33;;;;;;;20.88;15.55;;;11.60;99.90;;;;;;20363706;29;20095;-44
2023/10/31 16:48:33;;;;;;;19.73;12.20;;;11.60;99.90;;;;;;20364952;29;20055;-44
2023/10/31 16:58:34;;;;;;;20.02;11.70;;;11.60;99.90;;;;;;20353864;29;20075;-44
2023/10/31 17:08:35;;;;;;;19.20;13.35;;;11.40;99.90;;;;;;20346322;29;20067;-43
2023/10/31 17:18:36;;;;;;;24.63;15.30;;;11.30;99.90;;;;;;20344880;29;20118;-42
2023/10/31 17:28:38;;;;;;;23.48;15.52;;;11.40;99.90;;;;;;20353517;29;20040;-43
2023/10/31 17:38:38;;;;;;;25.40;16.08;;;11.40;99.90;;;;;;20372953;29;20433;-43
2023/10/31 17:48:39;;;;;;;21.95;14.55;;;11.30;99.90;;;;;;20378914;28;20074;-43
2023/10/31 17:58:39;;;;;;;23.15;16.13;;;11.30;99.90;;;;;;20337255;29;20130;-43
2023/10/31 18:08:40;;;;;;;23.08;15.80;;;11.30;99.90;;;;;;20338780;29;20051;-43
2023/10/31 18:18:41;;;;;;;27.10;17.17;;;11.30;99.90;;;;;;20335173;29;20567;-43
2023/10/31 18:28:42;;;;;;;28.73;15.98;;;11.30;99.90;;;;;;20319078;29;20039;-43
2023/10/31 18:38:43;;;;;;;27.00;16.07;;;11.30;99.90;;;;;;20333869;29;20067;-43
2023/10/31 18:48:43;;;;;;;26.20;16.73;;;11.30;99.90;;;;;;20359407;29;20131;-44
2023/10/31 18:58:44;;;;;;;26.02;15.88;;;11.30;99.90;;;;;;20354675;29;20083;-44
2023/10/31 19:08:45;;;;;;;29.27;16.27;;;11.40;99.90;;;;;;20343506;29;20515;-44
2023/10/31 19:18:45;;;;;;;23.93;16.30;;;11.30;99.90;;;;;;20355038;29;20047;-44
2023/10/31 19:28:46;;;;;;;23.63;15.25;;;11.30;99.90;;;;;;20345505;29;20112;-42
2023/10/31 19:38:46;;;;;;;24.35;15.00;;;11.50;99.90;;;;;;20325845;29;20551;-43
2023/10/31 19:48:47;;;;;;;21.73;15.07;;;11.40;99.90;;;;;;20345888;28;20369;-43
2023/10/31 19:58:48;;;;;;;22.75;15.27;;;11.50;99.90;;;;;;20336807;29;20056;-44
2023/10/31 20:08:49;;;;;;;23.08;14.30;;;11.60;99.90;;;;;;20345114;29;20058;-43
2023/10/31 20:18:49;;;;;;;18.20;11.38;;;11.70;99.90;;;;;;20338307;29;20055;-43
2023/10/31 20:28:50;;;;;;;14.70;8.20;;;11.70;99.90;;;;;;20350863;29;20081;-43
2023/10/31 20:38:50;;;;;;;10.82;6.78;;;11.50;99.90;;;;;;20314345;29;20055;-43
2023/10/31 20:48:51;;;;;;;8.40;4.75;;;11.50;99.90;;;;;;20323782;29;20262;-43
2023/10/31 20:58:52;;;;;;;5.82;2.67;;;11.30;99.90;;;;;;20350637;29;20154;-45
2023/10/31 21:08:52;;;;;;;3.63;2.22;;;10.90;99.90;;;;;;20369861;29;20448;-45
2023/10/31 21:18:53;;;;;;;6.32;2.92;;;10.80;99.90;;;;;;20373027;29;20048;-46
2023/10/31 21:28:53;;;;;;;5.00;3.10;;;10.60;99.90;;;;;;20346899;29;20293;-43
2023/10/31 21:38:54;;;;;;;4.38;1.73;;;10.50;99.90;;;;;;20326818;29;20056;-44
2023/10/31 21:48:54;;;;;;;4.85;1.90;;;10.70;99.90;;;;;;20348102;29;20048;-44
2023/10/31 21:58:55;;;;;;;7.60;2.80;;;10.60;99.90;;;;;;20349116;29;20051;-42
2023/10/31 22:08:56;;;;;;;7.05;3.30;;;10.70;99.90;;;;;;20368537;29;20548;-44
2023/10/31 22:18:57;;;;;;;12.32;6.45;;;10.70;99.90;;;;;;20362158;29;20059;-46
2023/10/31 22:28:58;;;;;;;13.25;7.60;;;11.00;99.90;;;;;;20343616;29;20520;-42
2023/10/31 22:38:59;;;;;;;5.65;2.95;;;11.30;99.90;;;;;;20351154;29;20620;-43
2023/10/31 22:49:00;;;;;;;6.10;1.92;;;11.20;99.90;;;;;;20346302;29;20039;-44
2023/10/31 22:59:01;;;;;;;5.50;2.80;;;10.90;99.90;;;;;;20345879;29;20054;-44
2023/10/31 23:09:03;;;;;;;7.78;3.72;;;10.80;99.90;;;;;;20351202;29;20599;-44
2023/10/31 23:19:03;;;;;;;9.02;4.45;;;10.70;99.90;;;;;;20364343;29;20244;-44
2023/10/31 23:29:04;;;;;;;10.90;6.13;;;11.00;99.90;;;;;;20356175;29;20051;-43
2023/10/31 23:39:05;;;;;;;14.63;6.85;;;11.00;99.90;;;;;;20362330;29;20066;-44
2023/10/31 23:49:05;;;;;;;16.67;6.32;;;11.20;99.90;;;;;;20381160;29;20071;-44
2023/10/31 23:59:06;;;;;;;11.43;4.93;;;11.50;99.90;;;;;;20382384;29;20411;-44
